Elizabeth Mc Allister — WDB7652 — position and weather

sailwx.info

Track history (hours):
 
Tides and Currents Weather Stations Pressure Air Temp Water Temp Dewpoint Dewpoint Depression Visibility Wind Speed Wind Dir Waves Ship Positions

Elizabeth Mc Allister

Owner: MC ALLISTER TOWING & TRANSPORTATION INC, NEW YORK, NY. More information available from US FCC via Universal Licensing System and Coast Guard Vessel Documentation Center.

Last reported at 2015-Feb-27 06:25 UTC. Time now 2015-Feb-27 07:31 UTC.
Position N 40°38' W 074°10'.

Length 31 m.

Type: Tug. MMSI: 366945680.

Date/timePositionNaut miles runAvg speedWind from/ knotsBaromVisibWave heightAir tempDewpointWater temp
2015-Feb-27 06:25N 40°38' W 074°10'0 0.0
2015-Feb-27 04:06N 40°38' W 074°10'0 0.0
2015-Feb-27 03:28N 40°38' W 074°10'0 0.0
2015-Feb-27 02:33N 40°38' W 074°10'0 0.0
2015-Feb-27 01:30N 40°38' W 074°10'0 0.0
2015-Feb-27 00:32N 40°38' W 074°10'0 0.0
2015-Feb-26 23:33N 40°38' W 074°10'0 0.0
2015-Feb-26 22:12N 40°38' W 074°10'0 0.0
2015-Feb-26 21:11N 40°38' W 074°10'0 0.0
2015-Feb-26 20:21N 40°38' W 074°10'0 0.0
2015-Feb-26 19:32N 40°38' W 074°10'0 0.0
2015-Feb-26 18:07N 40°38' W 074°10'0 0.0
2015-Feb-26 17:20N 40°38' W 074°10'1 0.6
2015-Feb-26 16:24N 40°39' W 074°09'2 2.1
2015-Feb-26 15:30N 40°41' W 074°08'4 3.7
2015-Feb-26 14:32N 40°39' W 074°04'3 3.3
2015-Feb-26 13:31N 40°38' W 074°08'1 1.0
2015-Feb-26 12:27N 40°38' W 074°10'1 1.0
2015-Feb-26 11:23N 40°39' W 074°11'4 4.2
2015-Feb-26 10:21N 40°39' W 074°05'2 2.1
2015-Feb-26 09:27N 40°38' W 074°03'5 4.7
2015-Feb-26 08:24N 40°38' W 074°10'0 0.0
2015-Feb-26 07:16N 40°38' W 074°10'0 0.0
2015-Feb-26 06:15N 40°38' W 074°10'0 0.0
2015-Feb-26 05:13N 40°38' W 074°10'0 0.0
2015-Feb-26 04:29N 40°38' W 074°10'0 0.0
2015-Feb-26 03:29N 40°38' W 074°10'0 0.0
2015-Feb-26 02:22N 40°38' W 074°10'0 0.0
2015-Feb-26 01:23N 40°38' W 074°10'0 0.0
2015-Feb-26 00:32N 40°38' W 074°10'0 0.4
2015-Feb-25 23:30N 40°39' W 074°10'8 6.6
2015-Feb-25 22:15N 40°31' W 074°15'2 3.3
2015-Feb-25 21:31N 40°33' W 074°14'2 0.7
2015-Feb-25 19:20N 40°35' W 074°13'4 1.5
2015-Feb-25 16:29N 40°38' W 074°10'7 3.6
2015-Feb-25 14:29N 40°33' W 074°15'2 2.1
2015-Feb-25 13:33N 40°31' W 074°15'5 4.4
2015-Feb-25 12:31N 40°35' W 074°13'4 2.2
2015-Feb-25 10:32N 40°38' W 074°10'0 0.0
2015-Feb-25 09:27N 40°38' W 074°10'0 0.0
2015-Feb-25 08:31N 40°38' W 074°10'0 0.0
2015-Feb-25 07:33N 40°38' W 074°10'0 0.0
2015-Feb-25 06:33N 40°38' W 074°10'0 0.0
2015-Feb-25 05:33N 40°38' W 074°10'0 0.0
2015-Feb-25 04:33N 40°38' W 074°10'2 2.1
2015-Feb-25 03:30N 40°37' W 074°12'2 1.4
2015-Feb-25 02:20N 40°35' W 074°12'0 0.0
2015-Feb-25 01:23N 40°35' W 074°12'3 0.9
2015-Feb-24 22:29N 40°33' W 074°14'6 6.5
2015-Feb-24 21:33N 40°38' W 074°10'0 0.0
2015-Feb-24 20:33N 40°38' W 074°10'0 0.0
2015-Feb-24 19:33N 40°38' W 074°10'0 0.4
2015-Feb-24 18:33N 40°38' W 074°09'3 3.1
2015-Feb-24 17:32N 40°36' W 074°12'3 3.1
2015-Feb-24 16:33N 40°39' W 074°10'1 0.5
2015-Feb-24 15:33N 40°38' W 074°10'0 0.0
2015-Feb-24 14:33N 40°38' W 074°10'0 0.0
2015-Feb-24 13:26N 40°38' W 074°10'0 0.0
2015-Feb-24 12:27N 40°38' W 074°10'0 0.0
2015-Feb-24 08:29N 40°38' W 074°10'0 0.0
2015-Feb-24 07:32N 40°38' W 074°10'0 0.0
2015-Feb-24 06:26N 40°38' W 074°10'0 0.0
2015-Feb-24 05:29N 40°38' W 074°10'0 0.1
2015-Feb-24 04:33N 40°38' W 074°10'4 4.4
2015-Feb-24 03:33N 40°40' W 074°04'6 4.1
2015-Feb-24 02:10N 40°38' W 074°12'0 0.0
2015-Feb-24 00:04N 40°38' W 074°11'3 5.9
2015-Feb-23 23:33N 40°41' W 074°09'0 0.1
2015-Feb-23 22:33N 40°41' W 074°09'3 2.7
2015-Feb-23 21:33N 40°39' W 074°07'2 2.0
2015-Feb-23 20:33N 40°38' W 074°10'0 0.0
2015-Feb-23 19:33N 40°38' W 074°10'0 0.0
2015-Feb-23 18:33N 40°38' W 074°10'0 0.0
2015-Feb-23 17:33N 40°38' W 074°10'4 3.8
2015-Feb-23 16:33N 40°39' W 074°05'4 3.8
2015-Feb-23 15:33N 40°38' W 074°10'0 0.0
2015-Feb-23 14:33N 40°38' W 074°10'0 0.0
2015-Feb-23 13:33N 40°39' W 074°10'1 0.8
2015-Feb-23 12:33N 40°39' W 074°09'2 1.9
2015-Feb-23 11:33N 40°40' W 074°08'2 2.3
2015-Feb-23 10:33N 40°38' W 074°10'0 0.0
2015-Feb-23 09:33N 40°38' W 074°10'0 0.0
2015-Feb-23 08:33N 40°38' W 074°10'0 0.0
2015-Feb-23 07:33N 40°38' W 074°10'0 0.0
2015-Feb-23 06:33N 40°38' W 074°10'0 0.0
2015-Feb-23 05:33N 40°38' W 074°10'0 0.0
2015-Feb-23 04:33N 40°38' W 074°10'0 0.0
2015-Feb-23 03:33N 40°38' W 074°10'0 0.0
2015-Feb-23 02:33N 40°38' W 074°10'0 0.0
2015-Feb-23 01:33N 40°38' W 074°10'0 0.0
2015-Feb-23 00:32N 40°38' W 074°10'0 0.0
2015-Feb-22 23:33N 40°38' W 074°10'0 0.0
2015-Feb-22 22:33N 40°38' W 074°10'0 0.0
2015-Feb-22 21:33N 40°38' W 074°10'0 0.0
2015-Feb-22 20:33N 40°38' W 074°10'0 0.0
2015-Feb-22 19:33N 40°38' W 074°10'10 4.5
2015-Feb-22 17:17N 40°30' W 074°17'9 2.5
2015-Feb-22 13:33N 40°38' W 074°12'1 1.5
2015-Feb-22 12:33N 40°38' W 074°10'0 0.0
2015-Feb-22 11:28N 40°38' W 074°10'0 0.0
2015-Feb-22 10:33N 40°38' W 074°10'0 0.0
2015-Feb-22 08:33N 40°38' W 074°10'0 0.0
2015-Feb-22 07:25N 40°38' W 074°10'0 0.0
2015-Feb-22 06:33N 40°38' W 074°10'0 0.0
2015-Feb-22 05:33N 40°38' W 074°10'0 0.0
2015-Feb-22 04:33N 40°38' W 074°10'0 0.0
2015-Feb-22 03:33N 40°38' W 074°10'0 0.0
2015-Feb-22 02:33N 40°38' W 074°10'0 0.0
2015-Feb-22 01:33N 40°38' W 074°10'0 0.0
2015-Feb-22 00:31N 40°38' W 074°10'0 0.0
2015-Feb-21 23:33N 40°38' W 074°10'0 0.0
2015-Feb-21 22:33N 40°38' W 074°10'0 0.0
2015-Feb-21 21:33N 40°38' W 074°10'0 0.0
2015-Feb-21 20:33N 40°38' W 074°10'0 0.0
2015-Feb-21 19:31N 40°38' W 074°10'0 0.0
2015-Feb-21 18:33N 40°38' W 074°10'1 0.9
2015-Feb-21 17:33N 40°39' W 074°09'2 2.1
2015-Feb-21 16:33N 40°41' W 074°09'2 2.3
2015-Feb-21 15:32N 40°38' W 074°10'0 0.0
2015-Feb-21 14:33N 40°38' W 074°10'1 1.3
2015-Feb-21 13:31N 40°39' W 074°09'0 0.1
2015-Feb-21 12:33N 40°39' W 074°09'1 1.3
2015-Feb-21 11:33N 40°38' W 074°10'0 0.0
2015-Feb-21 10:33N 40°38' W 074°10'0 0.0
2015-Feb-21 09:31N 40°38' W 074°10'0 0.0
2015-Feb-21 07:32N 40°38' W 074°10'0 0.0
2015-Feb-21 06:33N 40°38' W 074°10'0 0.0
2015-Feb-21 05:33N 40°38' W 074°10'0 0.0
2015-Feb-21 04:33N 40°38' W 074°10'0 0.0
2015-Feb-21 03:33N 40°38' W 074°10'0 0.0
2015-Feb-21 02:20N 40°38' W 074°10'0 0.0
2015-Feb-21 01:33N 40°38' W 074°10'0 0.0
2015-Feb-21 00:33N 40°38' W 074°10'1 0.6
2015-Feb-20 23:33N 40°39' W 074°10'6 4.9
2015-Feb-20 22:24N 40°33' W 074°13'2 2.3
2015-Feb-20 21:32N 40°32' W 074°15'1 0.7
2015-Feb-20 20:29N 40°33' W 074°15'4 4.3
2015-Feb-20 19:31N 40°36' W 074°12'7 1.3
2015-Feb-20 14:25N 40°30' W 074°15'7 5.3
2015-Feb-20 13:03N 40°37' W 074°12'2 4.9
2015-Feb-20 12:33N 40°38' W 074°10'0 0.0
2015-Feb-20 11:33N 40°38' W 074°10'0 0.0
2015-Feb-20 10:33N 40°38' W 074°10'0 0.0
2015-Feb-20 09:33N 40°38' W 074°10'0 0.0
2015-Feb-20 08:33N 40°38' W 074°10'0 0.0
2015-Feb-20 07:33N 40°38' W 074°10'0 0.0
2015-Feb-20 06:33N 40°38' W 074°10'0 0.0
2015-Feb-20 05:33N 40°38' W 074°10'0 0.0
2015-Feb-20 04:33N 40°38' W 074°10'0 0.0
2015-Feb-20 03:33N 40°38' W 074°10'0 0.0
2015-Feb-20 02:33N 40°38' W 074°10'1 0.7
2015-Feb-20 01:33N 40°39' W 074°09'1 1.3
2015-Feb-20 00:31N 40°40' W 074°09'1 0.6
2015-Feb-19 23:33N 40°40' W 074°08'2 1.2
2015-Feb-19 22:16N 40°42' W 074°09'3 4.5
2015-Feb-19 21:33N 40°39' W 074°09'2 1.9
2015-Feb-19 20:33N 40°40' W 074°08'1 1.0
2015-Feb-19 19:33N 40°40' W 074°09'0 0.0
2015-Feb-19 18:33N 40°40' W 074°09'0 0.0
2015-Feb-19 17:33N 40°40' W 074°09'0 0.1
2015-Feb-19 15:33N 40°40' W 074°09'1 1.4
2015-Feb-19 14:32N 40°38' W 074°10'0 0.0
2015-Feb-19 13:32N 40°38' W 074°10'0 0.0
2015-Feb-19 12:31N 40°38' W 074°10'0 0.0
2015-Feb-19 11:25N 40°38' W 074°10'0 0.0
2015-Feb-19 10:33N 40°38' W 074°10'0 0.0
2015-Feb-19 07:27N 40°38' W 074°10'0 0.0
2015-Feb-19 06:32N 40°38' W 074°10'0 0.0
2015-Feb-19 05:29N 40°38' W 074°10'0 0.0
2015-Feb-19 04:33N 40°38' W 074°10'0 0.0
2015-Feb-19 03:33N 40°38' W 074°10'0 0.0
2015-Feb-19 02:33N 40°38' W 074°10'0 0.0
2015-Feb-19 01:33N 40°38' W 074°10'0 0.2
2015-Feb-19 00:33N 40°38' W 074°10'3 3.0
2015-Feb-18 23:29N 40°42' W 074°08'1 1.2
2015-Feb-18 22:33N 40°40' W 074°08'1 0.7
2015-Feb-18 21:32N 40°41' W 074°09'1 1.1
2015-Feb-18 20:14N 40°40' W 074°09'3 4.4
2015-Feb-18 19:33N 40°39' W 074°05'0 0.4
2015-Feb-18 18:33N 40°39' W 074°05'3 3.4
2015-Feb-18 17:33N 40°38' W 074°10'0 0.0
2015-Feb-18 16:31N 40°38' W 074°10'1 1.2
2015-Feb-18 15:33N 40°39' W 074°11'1 1.1
2015-Feb-18 14:33N 40°39' W 074°10'0 0.1
2015-Feb-18 13:32N 40°38' W 074°10'0 0.0
2015-Feb-18 12:19N 40°38' W 074°10'0 0.0
2015-Feb-18 11:32N 40°38' W 074°10'0 0.0
2015-Feb-18 10:33N 40°38' W 074°10'0 0.0
2015-Feb-18 09:33N 40°38' W 074°10'0 0.0
2015-Feb-18 06:25N 40°38' W 074°10'0 0.0
2015-Feb-18 05:33N 40°38' W 074°10'0 0.0
2015-Feb-18 04:31N 40°38' W 074°10'0 0.0
2015-Feb-18 03:29N 40°38' W 074°10'0 0.0
2015-Feb-18 02:32N 40°38' W 074°10'0 0.0
2015-Feb-18 01:32N 40°38' W 074°10'0 0.0
2015-Feb-18 00:32N 40°38' W 074°10'0 0.0
2015-Feb-17 23:33N 40°38' W 074°10'0 0.0
2015-Feb-17 22:31N 40°38' W 074°10'2 2.5
2015-Feb-17 21:33N 40°41' W 074°08'1 0.6
2015-Feb-17 20:33N 40°40' W 074°08'2 1.5
2015-Feb-17 19:33N 40°39' W 074°08'0 0.2
2015-Feb-17 17:32N 40°39' W 074°09'4 4.5
2015-Feb-17 16:33N 40°37' W 074°03'4 3.9
2015-Feb-17 15:33N 40°39' W 074°08'3 2.8
2015-Feb-17 14:33N 40°39' W 074°04'2 1.7
2015-Feb-17 13:33N 40°41' W 074°04'2 2.2
2015-Feb-17 12:33N 40°39' W 074°03'1 1.4
2015-Feb-17 11:33N 40°39' W 074°05'3 3.5
2015-Feb-17 10:33N 40°38' W 074°10'0 0.0
2015-Feb-17 09:33N 40°38' W 074°10'0 0.0
2015-Feb-17 08:33N 40°38' W 074°10'0 0.0
2015-Feb-17 07:33N 40°38' W 074°10'0 0.0
2015-Feb-17 06:33N 40°38' W 074°10'  
Track history (hours):
 
Tides and Currents Weather Stations Pressure Air Temp Water Temp Dewpoint Dewpoint Depression Visibility Wind Speed Wind Dir Waves Ship Positions

Elizabeth Mc Allister

Owner: MC ALLISTER TOWING & TRANSPORTATION INC, NEW YORK, NY. More information available from US FCC via Universal Licensing System and Coast Guard Vessel Documentation Center.

Last reported at 2015-Feb-27 06:25 UTC. Time now 2015-Feb-27 07:31 UTC.
Position N 40°38' W 074°10'.

Length 31 m.

Type: Tug. MMSI: 366945680.

Date/timePositionNaut miles runAvg speedWind from/ knotsBaromVisibWave heightAir tempDewpointWater temp
2015-Feb-27 06:25N 40°38' W 074°10'0 0.0
2015-Feb-27 04:06N 40°38' W 074°10'0 0.0
2015-Feb-27 03:28N 40°38' W 074°10'0 0.0
2015-Feb-27 02:33N 40°38' W 074°10'0 0.0
2015-Feb-27 01:30N 40°38' W 074°10'0 0.0
2015-Feb-27 00:32N 40°38' W 074°10'0 0.0
2015-Feb-26 23:33N 40°38' W 074°10'0 0.0
2015-Feb-26 22:12N 40°38' W 074°10'0 0.0
2015-Feb-26 21:11N 40°38' W 074°10'0 0.0
2015-Feb-26 20:21N 40°38' W 074°10'0 0.0
2015-Feb-26 19:32N 40°38' W 074°10'0 0.0
2015-Feb-26 18:07N 40°38' W 074°10'0 0.0
2015-Feb-26 17:20N 40°38' W 074°10'1 0.6
2015-Feb-26 16:24N 40°39' W 074°09'2 2.1
2015-Feb-26 15:30N 40°41' W 074°08'4 3.7
2015-Feb-26 14:32N 40°39' W 074°04'3 3.3
2015-Feb-26 13:31N 40°38' W 074°08'1 1.0
2015-Feb-26 12:27N 40°38' W 074°10'1 1.0
2015-Feb-26 11:23N 40°39' W 074°11'4 4.2
2015-Feb-26 10:21N 40°39' W 074°05'2 2.1
2015-Feb-26 09:27N 40°38' W 074°03'5 4.7
2015-Feb-26 08:24N 40°38' W 074°10'0 0.0
2015-Feb-26 07:16N 40°38' W 074°10'0 0.0
2015-Feb-26 06:15N 40°38' W 074°10'0 0.0
2015-Feb-26 05:13N 40°38' W 074°10'0 0.0
2015-Feb-26 04:29N 40°38' W 074°10'0 0.0
2015-Feb-26 03:29N 40°38' W 074°10'0 0.0
2015-Feb-26 02:22N 40°38' W 074°10'0 0.0
2015-Feb-26 01:23N 40°38' W 074°10'0 0.0
2015-Feb-26 00:32N 40°38' W 074°10'0 0.4
2015-Feb-25 23:30N 40°39' W 074°10'8 6.6
2015-Feb-25 22:15N 40°31' W 074°15'2 3.3
2015-Feb-25 21:31N 40°33' W 074°14'2 0.7
2015-Feb-25 19:20N 40°35' W 074°13'4 1.5
2015-Feb-25 16:29N 40°38' W 074°10'7 3.6
2015-Feb-25 14:29N 40°33' W 074°15'2 2.1
2015-Feb-25 13:33N 40°31' W 074°15'5 4.4
2015-Feb-25 12:31N 40°35' W 074°13'4 2.2
2015-Feb-25 10:32N 40°38' W 074°10'0 0.0
2015-Feb-25 09:27N 40°38' W 074°10'0 0.0
2015-Feb-25 08:31N 40°38' W 074°10'0 0.0
2015-Feb-25 07:33N 40°38' W 074°10'0 0.0
2015-Feb-25 06:33N 40°38' W 074°10'0 0.0
2015-Feb-25 05:33N 40°38' W 074°10'0 0.0
2015-Feb-25 04:33N 40°38' W 074°10'2 2.1
2015-Feb-25 03:30N 40°37' W 074°12'2 1.4
2015-Feb-25 02:20N 40°35' W 074°12'0 0.0
2015-Feb-25 01:23N 40°35' W 074°12'3 0.9
2015-Feb-24 22:29N 40°33' W 074°14'6 6.5
2015-Feb-24 21:33N 40°38' W 074°10'0 0.0
2015-Feb-24 20:33N 40°38' W 074°10'0 0.0
2015-Feb-24 19:33N 40°38' W 074°10'0 0.4
2015-Feb-24 18:33N 40°38' W 074°09'3 3.1
2015-Feb-24 17:32N 40°36' W 074°12'3 3.1
2015-Feb-24 16:33N 40°39' W 074°10'1 0.5
2015-Feb-24 15:33N 40°38' W 074°10'0 0.0
2015-Feb-24 14:33N 40°38' W 074°10'0 0.0
2015-Feb-24 13:26N 40°38' W 074°10'0 0.0
2015-Feb-24 12:27N 40°38' W 074°10'0 0.0
2015-Feb-24 08:29N 40°38' W 074°10'0 0.0
2015-Feb-24 07:32N 40°38' W 074°10'0 0.0
2015-Feb-24 06:26N 40°38' W 074°10'0 0.0
2015-Feb-24 05:29N 40°38' W 074°10'0 0.1
2015-Feb-24 04:33N 40°38' W 074°10'4 4.4
2015-Feb-24 03:33N 40°40' W 074°04'6 4.1
2015-Feb-24 02:10N 40°38' W 074°12'0 0.0
2015-Feb-24 00:04N 40°38' W 074°11'3 5.9
2015-Feb-23 23:33N 40°41' W 074°09'0 0.1
2015-Feb-23 22:33N 40°41' W 074°09'3 2.7
2015-Feb-23 21:33N 40°39' W 074°07'2 2.0
2015-Feb-23 20:33N 40°38' W 074°10'0 0.0
2015-Feb-23 19:33N 40°38' W 074°10'0 0.0
2015-Feb-23 18:33N 40°38' W 074°10'0 0.0
2015-Feb-23 17:33N 40°38' W 074°10'4 3.8
2015-Feb-23 16:33N 40°39' W 074°05'4 3.8
2015-Feb-23 15:33N 40°38' W 074°10'0 0.0
2015-Feb-23 14:33N 40°38' W 074°10'0 0.0
2015-Feb-23 13:33N 40°39' W 074°10'1 0.8
2015-Feb-23 12:33N 40°39' W 074°09'2 1.9
2015-Feb-23 11:33N 40°40' W 074°08'2 2.3
2015-Feb-23 10:33N 40°38' W 074°10'0 0.0
2015-Feb-23 09:33N 40°38' W 074°10'0 0.0
2015-Feb-23 08:33N 40°38' W 074°10'0 0.0
2015-Feb-23 07:33N 40°38' W 074°10'0 0.0
2015-Feb-23 06:33N 40°38' W 074°10'0 0.0
2015-Feb-23 05:33N 40°38' W 074°10'0 0.0
2015-Feb-23 04:33N 40°38' W 074°10'0 0.0
2015-Feb-23 03:33N 40°38' W 074°10'0 0.0
2015-Feb-23 02:33N 40°38' W 074°10'0 0.0
2015-Feb-23 01:33N 40°38' W 074°10'0 0.0
2015-Feb-23 00:32N 40°38' W 074°10'0 0.0
2015-Feb-22 23:33N 40°38' W 074°10'0 0.0
2015-Feb-22 22:33N 40°38' W 074°10'0 0.0
2015-Feb-22 21:33N 40°38' W 074°10'0 0.0
2015-Feb-22 20:33N 40°38' W 074°10'0 0.0
2015-Feb-22 19:33N 40°38' W 074°10'10 4.5
2015-Feb-22 17:17N 40°30' W 074°17'9 2.5
2015-Feb-22 13:33N 40°38' W 074°12'1 1.5
2015-Feb-22 12:33N 40°38' W 074°10'0 0.0
2015-Feb-22 11:28N 40°38' W 074°10'0 0.0
2015-Feb-22 10:33N 40°38' W 074°10'0 0.0
2015-Feb-22 08:33N 40°38' W 074°10'0 0.0
2015-Feb-22 07:25N 40°38' W 074°10'0 0.0
2015-Feb-22 06:33N 40°38' W 074°10'0 0.0
2015-Feb-22 05:33N 40°38' W 074°10'0 0.0
2015-Feb-22 04:33N 40°38' W 074°10'0 0.0
2015-Feb-22 03:33N 40°38' W 074°10'0 0.0
2015-Feb-22 02:33N 40°38' W 074°10'0 0.0
2015-Feb-22 01:33N 40°38' W 074°10'0 0.0
2015-Feb-22 00:31N 40°38' W 074°10'0 0.0
2015-Feb-21 23:33N 40°38' W 074°10'0 0.0
2015-Feb-21 22:33N 40°38' W 074°10'0 0.0
2015-Feb-21 21:33N 40°38' W 074°10'0 0.0
2015-Feb-21 20:33N 40°38' W 074°10'0 0.0
2015-Feb-21 19:31N 40°38' W 074°10'0 0.0
2015-Feb-21 18:33N 40°38' W 074°10'1 0.9
2015-Feb-21 17:33N 40°39' W 074°09'2 2.1
2015-Feb-21 16:33N 40°41' W 074°09'2 2.3
2015-Feb-21 15:32N 40°38' W 074°10'0 0.0
2015-Feb-21 14:33N 40°38' W 074°10'1 1.3
2015-Feb-21 13:31N 40°39' W 074°09'0 0.1
2015-Feb-21 12:33N 40°39' W 074°09'1 1.3
2015-Feb-21 11:33N 40°38' W 074°10'0 0.0
2015-Feb-21 10:33N 40°38' W 074°10'0 0.0
2015-Feb-21 09:31N 40°38' W 074°10'0 0.0
2015-Feb-21 07:32N 40°38' W 074°10'0 0.0
2015-Feb-21 06:33N 40°38' W 074°10'0 0.0
2015-Feb-21 05:33N 40°38' W 074°10'0 0.0
2015-Feb-21 04:33N 40°38' W 074°10'0 0.0
2015-Feb-21 03:33N 40°38' W 074°10'0 0.0
2015-Feb-21 02:20N 40°38' W 074°10'0 0.0
2015-Feb-21 01:33N 40°38' W 074°10'0 0.0
2015-Feb-21 00:33N 40°38' W 074°10'1 0.6
2015-Feb-20 23:33N 40°39' W 074°10'6 4.9
2015-Feb-20 22:24N 40°33' W 074°13'2 2.3
2015-Feb-20 21:32N 40°32' W 074°15'1 0.7
2015-Feb-20 20:29N 40°33' W 074°15'4 4.3
2015-Feb-20 19:31N 40°36' W 074°12'7 1.3
2015-Feb-20 14:25N 40°30' W 074°15'7 5.3
2015-Feb-20 13:03N 40°37' W 074°12'2 4.9
2015-Feb-20 12:33N 40°38' W 074°10'0 0.0
2015-Feb-20 11:33N 40°38' W 074°10'0 0.0
2015-Feb-20 10:33N 40°38' W 074°10'0 0.0
2015-Feb-20 09:33N 40°38' W 074°10'0 0.0
2015-Feb-20 08:33N 40°38' W 074°10'0 0.0
2015-Feb-20 07:33N 40°38' W 074°10'0 0.0
2015-Feb-20 06:33N 40°38' W 074°10'0 0.0
2015-Feb-20 05:33N 40°38' W 074°10'0 0.0
2015-Feb-20 04:33N 40°38' W 074°10'0 0.0
2015-Feb-20 03:33N 40°38' W 074°10'0 0.0
2015-Feb-20 02:33N 40°38' W 074°10'1 0.7
2015-Feb-20 01:33N 40°39' W 074°09'1 1.3
2015-Feb-20 00:31N 40°40' W 074°09'1 0.6
2015-Feb-19 23:33N 40°40' W 074°08'2 1.2
2015-Feb-19 22:16N 40°42' W 074°09'3 4.5
2015-Feb-19 21:33N 40°39' W 074°09'2 1.9
2015-Feb-19 20:33N 40°40' W 074°08'1 1.0
2015-Feb-19 19:33N 40°40' W 074°09'0 0.0
2015-Feb-19 18:33N 40°40' W 074°09'0 0.0
2015-Feb-19 17:33N 40°40' W 074°09'0 0.1
2015-Feb-19 15:33N 40°40' W 074°09'1 1.4
2015-Feb-19 14:32N 40°38' W 074°10'0 0.0
2015-Feb-19 13:32N 40°38' W 074°10'0 0.0
2015-Feb-19 12:31N 40°38' W 074°10'0 0.0
2015-Feb-19 11:25N 40°38' W 074°10'0 0.0
2015-Feb-19 10:33N 40°38' W 074°10'0 0.0
2015-Feb-19 07:27N 40°38' W 074°10'0 0.0
2015-Feb-19 06:32N 40°38' W 074°10'0 0.0
2015-Feb-19 05:29N 40°38' W 074°10'0 0.0
2015-Feb-19 04:33N 40°38' W 074°10'0 0.0
2015-Feb-19 03:33N 40°38' W 074°10'0 0.0
2015-Feb-19 02:33N 40°38' W 074°10'0 0.0
2015-Feb-19 01:33N 40°38' W 074°10'0 0.2
2015-Feb-19 00:33N 40°38' W 074°10'3 3.0
2015-Feb-18 23:29N 40°42' W 074°08'1 1.2
2015-Feb-18 22:33N 40°40' W 074°08'1 0.7
2015-Feb-18 21:32N 40°41' W 074°09'1 1.1
2015-Feb-18 20:14N 40°40' W 074°09'3 4.4
2015-Feb-18 19:33N 40°39' W 074°05'0 0.4
2015-Feb-18 18:33N 40°39' W 074°05'3 3.4
2015-Feb-18 17:33N 40°38' W 074°10'0 0.0
2015-Feb-18 16:31N 40°38' W 074°10'1 1.2
2015-Feb-18 15:33N 40°39' W 074°11'1 1.1
2015-Feb-18 14:33N 40°39' W 074°10'0 0.1
2015-Feb-18 13:32N 40°38' W 074°10'0 0.0
2015-Feb-18 12:19N 40°38' W 074°10'0 0.0
2015-Feb-18 11:32N 40°38' W 074°10'0 0.0
2015-Feb-18 10:33N 40°38' W 074°10'0 0.0
2015-Feb-18 09:33N 40°38' W 074°10'0 0.0
2015-Feb-18 06:25N 40°38' W 074°10'0 0.0
2015-Feb-18 05:33N 40°38' W 074°10'0 0.0
2015-Feb-18 04:31N 40°38' W 074°10'0 0.0
2015-Feb-18 03:29N 40°38' W 074°10'0 0.0
2015-Feb-18 02:32N 40°38' W 074°10'0 0.0
2015-Feb-18 01:32N 40°38' W 074°10'0 0.0
2015-Feb-18 00:32N 40°38' W 074°10'0 0.0
2015-Feb-17 23:33N 40°38' W 074°10'0 0.0
2015-Feb-17 22:31N 40°38' W 074°10'2 2.5
2015-Feb-17 21:33N 40°41' W 074°08'1 0.6
2015-Feb-17 20:33N 40°40' W 074°08'2 1.5
2015-Feb-17 19:33N 40°39' W 074°08'0 0.2
2015-Feb-17 17:32N 40°39' W 074°09'4 4.5
2015-Feb-17 16:33N 40°37' W 074°03'4 3.9
2015-Feb-17 15:33N 40°39' W 074°08'3 2.8
2015-Feb-17 14:33N 40°39' W 074°04'2 1.7
2015-Feb-17 13:33N 40°41' W 074°04'2 2.2
2015-Feb-17 12:33N 40°39' W 074°03'1 1.4
2015-Feb-17 11:33N 40°39' W 074°05'3 3.5
2015-Feb-17 10:33N 40°38' W 074°10'0 0.0
2015-Feb-17 09:33N 40°38' W 074°10'0 0.0
2015-Feb-17 08:33N 40°38' W 074°10'0 0.0
2015-Feb-17 07:33N 40°38' W 074°10'0 0.0
2015-Feb-17 06:33N 40°38' W 074°10'  

Dump ship's entire track history